Time;durP1;ratioP1;P1;durP2;ratioP2;P2;SDS_P1;SDS_P2;PMS_P1;PMS_P2;Temp;Humidity;BMP_temperature;BMP_pressure;BME280_temperature;BME280_humidity;BME280_pressure;Samples;Min_cycle;Max_cycle;Signal;HPM_P1;HPM_P2
2022/04/29 00:00:34;;;;;;;9.23;4.53;;;6.90;99.90;;;;;;5067492;28;20281;-38
2022/04/29 00:03:02;;;;;;;6.30;3.60;;;6.90;99.90;;;;;;5073101;28;20713;-39
2022/04/29 00:05:29;;;;;;;10.03;4.07;;;6.80;99.90;;;;;;5080110;28;20954;-38
2022/04/29 00:07:56;;;;;;;6.13;4.20;;;6.80;99.90;;;;;;5072864;28;20203;-39
2022/04/29 00:10:23;;;;;;;9.07;3.80;;;6.70;99.90;;;;;;5057779;28;20214;-39
2022/04/29 00:12:51;;;;;;;9.83;4.50;;;6.70;99.90;;;;;;5088564;28;20299;-39
2022/04/29 00:15:19;;;;;;;10.30;4.70;;;6.60;99.90;;;;;;5067035;28;20206;-38
2022/04/29 00:17:46;;;;;;;6.70;4.10;;;6.50;99.90;;;;;;5075505;28;20195;-38
2022/04/29 00:20:15;;;;;;;9.23;4.20;;;6.50;99.90;;;;;;5068832;28;20203;-38
2022/04/29 00:22:44;;;;;;;9.10;4.20;;;6.50;99.90;;;;;;5066925;28;20210;-39
2022/04/29 00:25:11;;;;;;;6.63;3.53;;;6.50;99.90;;;;;;5078653;28;20208;-38
2022/04/29 00:27:40;;;;;;;11.27;5.00;;;6.40;99.90;;;;;;5069856;28;20195;-41
2022/04/29 00:30:09;;;;;;;9.97;3.53;;;6.40;99.90;;;;;;5085223;27;20750;-39
2022/04/29 00:32:38;;;;;;;11.10;4.20;;;6.40;99.90;;;;;;5083936;28;20225;-40
2022/04/29 00:35:07;;;;;;;6.53;3.90;;;6.40;99.90;;;;;;5081017;28;20210;-39
2022/04/29 00:37:42;;;;;;;9.50;4.27;;;6.30;99.90;;;;;;5074515;28;20506;-38
2022/04/29 00:40:13;;;;;;;8.97;4.30;;;6.30;99.90;;;;;;5067318;28;20202;-38
2022/04/29 00:42:41;;;;;;;8.33;4.33;;;6.30;99.90;;;;;;5073208;28;20216;-38
2022/04/29 00:45:09;;;;;;;5.97;4.23;;;6.20;99.90;;;;;;5088051;27;20285;-40
2022/04/29 00:47:36;;;;;;;12.37;4.73;;;6.20;99.90;;;;;;5069551;28;20213;-40
2022/04/29 00:50:03;;;;;;;9.53;4.40;;;6.10;99.90;;;;;;5084090;27;20213;-39
2022/04/29 00:52:32;;;;;;;7.23;4.20;;;6.00;99.90;;;;;;5064841;28;20877;-38
2022/04/29 00:55:11;;;;;;;8.83;4.40;;;6.00;99.90;;;;;;5063710;28;20217;-38
2022/04/29 00:57:44;;;;;;;7.87;4.07;;;6.00;99.90;;;;;;5065727;28;20938;-39
2022/04/29 01:00:15;;;;;;;11.07;4.20;;;6.00;99.90;;;;;;5070342;28;20593;-39
2022/04/29 01:02:46;;;;;;;11.90;4.27;;;6.00;99.90;;;;;;5087474;27;20950;-39
2022/04/29 01:05:14;;;;;;;10.70;4.77;;;6.00;99.90;;;;;;5070976;28;20198;-38
2022/04/29 01:07:43;;;;;;;9.53;4.70;;;6.00;99.90;;;;;;5074597;28;20689;-39
2022/04/29 01:10:12;;;;;;;7.87;4.60;;;5.90;99.90;;;;;;5072599;27;20206;-40
2022/04/29 01:12:40;;;;;;;7.93;4.67;;;6.00;99.90;;;;;;5087879;28;20729;-38
2022/04/29 01:15:09;;;;;;;7.53;4.40;;;5.90;99.90;;;;;;5072811;28;20325;-39
2022/04/29 01:17:39;;;;;;;9.83;4.50;;;5.90;99.90;;;;;;5083623;27;20210;-39
2022/04/29 01:20:10;;;;;;;8.53;5.27;;;5.90;99.90;;;;;;5079383;28;20200;-39
2022/04/29 01:22:38;;;;;;;8.43;4.83;;;5.90;99.90;;;;;;5068763;28;20718;-38
2022/04/29 01:25:06;;;;;;;10.67;4.53;;;5.90;99.90;;;;;;5064208;28;20191;-39
2022/04/29 01:27:33;;;;;;;6.60;4.37;;;5.90;99.90;;;;;;5076902;28;20203;-42
2022/04/29 01:30:03;;;;;;;11.80;4.57;;;5.90;99.90;;;;;;5064949;28;20221;-38
2022/04/29 01:32:33;;;;;;;8.77;4.57;;;5.80;99.90;;;;;;5075560;27;20797;-38
2022/04/29 01:35:00;;;;;;;6.70;4.63;;;5.80;99.90;;;;;;5090274;27;20259;-40
2022/04/29 01:37:27;;;;;;;7.87;4.50;;;5.70;99.90;;;;;;5070093;28;20245;-38
2022/04/29 01:39:55;;;;;;;7.93;4.20;;;5.70;99.90;;;;;;5062972;28;20186;-39
2022/04/29 01:42:23;;;;;;;5.83;4.43;;;5.70;99.90;;;;;;5071893;28;20226;-39
2022/04/29 01:44:50;;;;;;;7.37;4.50;;;5.70;99.90;;;;;;5075742;28;20198;-40
2022/04/29 01:47:18;;;;;;;6.43;4.20;;;5.60;99.90;;;;;;5074373;28;20805;-40
2022/04/29 01:49:59;;;;;;;6.80;3.90;;;5.60;99.90;;;;;;5062555;28;20341;-41
2022/04/29 01:52:27;;;;;;;7.63;4.47;;;5.60;99.90;;;;;;5087208;28;20726;-39
2022/04/29 01:54:55;;;;;;;11.43;4.90;;;5.60;99.90;;;;;;5073081;28;20225;-38
2022/04/29 01:57:22;;;;;;;10.23;5.00;;;5.70;99.90;;;;;;5083718;27;20255;-39
2022/04/29 01:59:49;;;;;;;10.07;4.87;;;5.70;99.90;;;;;;5078370;28;20197;-38
2022/04/29 02:02:25;;;;;;;5.97;5.07;;;5.70;99.90;;;;;;5079858;28;20224;-38
2022/04/29 02:04:52;;;;;;;8.70;5.47;;;5.70;99.90;;;;;;5071124;28;20202;-39
2022/04/29 02:07:20;;;;;;;10.03;4.97;;;5.70;99.90;;;;;;5094238;27;20692;-39
2022/04/29 02:09:49;;;;;;;9.43;4.80;;;5.70;99.90;;;;;;5087412;28;20201;-38
2022/04/29 02:12:17;;;;;;;8.07;5.20;;;5.70;99.90;;;;;;5084756;28;20213;-40
2022/04/29 02:15:10;;;;;;;10.17;4.63;;;5.70;99.90;;;;;;5073058;28;20206;-40
2022/04/29 02:17:42;;;;;;;7.87;4.40;;;5.60;99.90;;;;;;5083134;27;20543;-38
2022/04/29 02:20:11;;;;;;;10.60;4.93;;;5.70;99.90;;;;;;5064086;28;20199;-38
2022/04/29 02:22:40;;;;;;;8.23;5.20;;;5.60;99.90;;;;;;5071561;28;20224;-38
2022/04/29 02:25:08;;;;;;;11.87;5.20;;;5.60;99.90;;;;;;5078335;28;20218;-39
2022/04/29 02:27:38;;;;;;;9.73;5.60;;;5.60;99.90;;;;;;5079073;28;20194;-39
2022/04/29 02:30:06;;;;;;;10.80;5.33;;;5.60;99.90;;;;;;5077930;27;20910;-40
2022/04/29 02:32:33;;;;;;;7.93;5.60;;;5.60;99.90;;;;;;5082703;28;20255;-39
2022/04/29 02:35:00;;;;;;;11.37;4.97;;;5.60;99.90;;;;;;5060368;28;20331;-40
2022/04/29 02:37:28;;;;;;;10.83;6.03;;;5.60;99.90;;;;;;5096704;27;20195;-39
2022/04/29 02:39:55;;;;;;;10.00;5.50;;;5.50;99.90;;;;;;5065556;28;20540;-38
2022/04/29 02:42:22;;;;;;;14.93;5.10;;;5.60;99.90;;;;;;5091968;28;20249;-39
2022/04/29 02:44:51;;;;;;;10.80;5.73;;;5.60;99.90;;;;;;5065157;28;20198;-39
2022/04/29 02:47:21;;;;;;;11.13;6.07;;;5.60;99.90;;;;;;5071798;28;20210;-39
2022/04/29 02:49:48;;;;;;;8.10;5.30;;;5.60;99.90;;;;;;5077894;28;20205;-39
2022/04/29 02:52:15;;;;;;;7.03;5.10;;;5.50;99.90;;;;;;5075949;27;20201;-42
2022/04/29 02:54:43;;;;;;;12.17;6.10;;;5.50;99.90;;;;;;5073802;28;20305;-39
2022/04/29 02:57:19;;;;;;;10.40;5.47;;;5.50;99.90;;;;;;5089719;28;20198;-39
2022/04/29 02:59:47;;;;;;;16.37;5.97;;;5.50;99.90;;;;;;5056707;28;20202;-42
2022/04/29 03:02:15;;;;;;;10.83;5.43;;;5.50;99.90;;;;;;5090764;28;20883;-39
2022/04/29 03:04:42;;;;;;;15.57;6.23;;;5.50;99.90;;;;;;5077433;28;20709;-40
2022/04/29 03:07:09;;;;;;;8.40;5.53;;;5.50;99.90;;;;;;5059815;28;20981;-38
2022/04/29 03:09:56;;;;;;;11.00;5.57;;;5.50;99.90;;;;;;5080559;28;20338;-39
2022/04/29 03:12:23;;;;;;;10.07;6.27;;;5.40;99.90;;;;;;5073700;28;20300;-38
2022/04/29 03:15:15;;;;;;;11.13;5.57;;;5.40;99.90;;;;;;5086027;27;20221;-38
2022/04/29 03:20:30;;;;;;;10.93;6.20;;;5.40;99.90;;;;;;5079792;28;20199;-42
2022/04/29 03:22:58;;;;;;;7.20;5.47;;;5.40;99.90;;;;;;5075607;28;20225;-41
2022/04/29 03:25:24;;;;;;;12.10;5.80;;;5.40;99.90;;;;;;5066264;28;20197;-40
2022/04/29 03:27:51;;;;;;;11.30;6.33;;;5.40;99.90;;;;;;5090954;28;20197;-42
2022/04/29 03:30:18;;;;;;;14.47;6.27;;;5.40;99.90;;;;;;5081263;28;20202;-40
2022/04/29 03:32:52;;;;;;;18.47;5.90;;;5.40;99.90;;;;;;5085543;28;20214;-38
2022/04/29 03:35:28;;;;;;;14.03;5.50;;;5.40;99.90;;;;;;5073359;28;20219;-39
2022/04/29 03:37:56;;;;;;;13.10;6.27;;;5.30;99.90;;;;;;5069497;28;20199;-38
2022/04/29 03:40:25;;;;;;;8.80;5.33;;;5.30;99.90;;;;;;5074932;28;20194;-38
2022/04/29 03:42:55;;;;;;;9.13;5.67;;;5.40;99.90;;;;;;5059802;28;20226;-39
2022/04/29 03:45:24;;;;;;;8.57;6.17;;;5.30;99.90;;;;;;5081856;28;20267;-39
2022/04/29 03:47:53;;;;;;;7.67;5.93;;;5.30;99.90;;;;;;5066638;28;20194;-39
2022/04/29 03:50:55;;;;;;;9.80;6.00;;;5.30;99.90;;;;;;5055248;28;20194;-39
2022/04/29 03:53:24;;;;;;;8.73;5.27;;;5.20;99.90;;;;;;5064704;28;20737;-39
2022/04/29 03:56:01;;;;;;;9.43;6.13;;;5.20;99.90;;;;;;5075343;28;20210;-39
2022/04/29 03:58:28;;;;;;;8.20;5.90;;;5.20;99.90;;;;;;5073488;28;20297;-39
2022/04/29 04:00:55;;;;;;;9.60;5.83;;;5.20;99.90;;;;;;5074782;28;20206;-39
2022/04/29 04:03:49;;;;;;;11.27;5.63;;;5.20;99.90;;;;;;5058351;28;20238;-40
2022/04/29 04:09:04;;;;;;;9.63;5.77;;;5.20;99.90;;;;;;5060735;28;20243;-39
2022/04/29 04:11:31;;;;;;;12.43;6.00;;;5.20;99.90;;;;;;5064943;28;20238;-39
2022/04/29 04:13:59;;;;;;;10.43;5.97;;;5.20;99.90;;;;;;5094083;28;20216;-40
2022/04/29 04:16:32;;;;;;;9.17;5.67;;;5.20;99.90;;;;;;5103319;27;20194;-43
2022/04/29 04:19:00;;;;;;;11.70;5.97;;;5.20;99.90;;;;;;5063134;28;20198;-39
2022/04/29 04:21:27;;;;;;;8.97;5.77;;;5.20;99.90;;;;;;5079639;28;20209;-39
2022/04/29 04:23:55;;;;;;;8.37;5.77;;;5.20;99.90;;;;;;5071575;28;20272;-40
2022/04/29 04:26:22;;;;;;;11.23;5.90;;;5.20;99.90;;;;;;5073690;27;20202;-40
2022/04/29 04:28:49;;;;;;;11.23;6.30;;;5.30;99.90;;;;;;5070592;28;20194;-39
2022/04/29 04:31:16;;;;;;;9.60;6.70;;;5.30;99.90;;;;;;5088363;28;20198;-40
2022/04/29 04:33:51;;;;;;;15.83;6.47;;;5.30;99.90;;;;;;5079924;28;20220;-39
2022/04/29 04:36:19;;;;;;;10.00;5.93;;;5.30;99.90;;;;;;5070381;28;20305;-42
2022/04/29 04:38:47;;;;;;;8.03;6.43;;;5.30;99.90;;;;;;5089113;28;20966;-42
2022/04/29 04:41:16;;;;;;;7.93;6.23;;;5.30;99.90;;;;;;5087547;28;20209;-39
2022/04/29 04:43:44;;;;;;;9.17;5.37;;;5.30;99.90;;;;;;5081286;27;20226;-40
2022/04/29 04:46:12;;;;;;;13.03;6.63;;;5.30;99.90;;;;;;5065137;28;20213;-40
2022/04/29 04:48:40;;;;;;;9.47;6.53;;;5.30;99.90;;;;;;5071844;28;20292;-44
2022/04/29 04:51:20;;;;;;;12.57;6.33;;;5.30;99.90;;;;;;5071331;28;20285;-39
2022/04/29 04:53:52;;;;;;;9.30;6.13;;;5.30;99.90;;;;;;5074165;28;20274;-40
2022/04/29 04:56:21;;;;;;;8.30;5.80;;;5.40;99.90;;;;;;5063440;28;20283;-38
2022/04/29 04:58:49;;;;;;;9.90;6.43;;;5.40;99.90;;;;;;5063091;28;20213;-41
2022/04/29 05:01:17;;;;;;;8.63;6.53;;;5.40;99.90;;;;;;5074130;28;20201;-39
2022/04/29 05:04:02;;;;;;;11.60;7.43;;;5.40;99.90;;;;;;5071382;28;20250;-40
2022/04/29 05:06:53;;;;;;;12.33;6.37;;;5.40;99.90;;;;;;5069927;28;21167;-39
2022/04/29 05:09:21;;;;;;;12.63;6.23;;;5.50;99.90;;;;;;5075497;28;20198;-40
2022/04/29 05:11:48;;;;;;;7.67;6.30;;;5.50;99.90;;;;;;5068287;28;20359;-40
2022/04/29 05:14:35;;;;;;;9.07;6.00;;;5.50;99.90;;;;;;5072102;28;20214;-39
2022/04/29 05:17:01;;;;;;;10.33;5.87;;;5.50;99.90;;;;;;5080784;28;20207;-40
2022/04/29 05:19:47;;;;;;;8.00;5.53;;;5.50;99.90;;;;;;5071531;28;20204;-40
2022/04/29 05:22:21;;;;;;;11.57;5.63;;;5.50;99.90;;;;;;5074029;28;20225;-39
2022/04/29 05:24:48;;;;;;;11.13;6.83;;;5.60;99.90;;;;;;5060028;28;20182;-40
2022/04/29 05:27:30;;;;;;;10.40;6.60;;;5.60;99.90;;;;;;5073611;28;20202;-40
2022/04/29 05:30:24;;;;;;;10.13;7.20;;;5.60;99.90;;;;;;5066864;28;20281;-43
2022/04/29 05:33:10;;;;;;;14.77;7.13;;;5.60;99.90;;;;;;5079350;28;20260;-40
2022/04/29 05:35:56;;;;;;;12.57;6.70;;;5.70;99.90;;;;;;5071136;28;20740;-39
2022/04/29 05:44:22;;;;;;;9.27;6.23;;;5.70;99.90;;;;;;5062360;28;20261;-39
2022/04/29 05:46:50;;;;;;;10.20;6.27;;;5.70;99.90;;;;;;5062878;28;20804;-40
2022/04/29 05:49:18;;;;;;;10.60;5.87;;;5.80;99.90;;;;;;5083099;28;20209;-40
2022/04/29 05:51:48;;;;;;;9.17;6.07;;;5.80;99.90;;;;;;5073107;28;20214;-39
2022/04/29 05:54:17;;;;;;;9.73;5.90;;;5.80;99.90;;;;;;5082970;27;20217;-41
2022/04/29 05:56:47;;;;;;;8.23;5.70;;;5.80;99.90;;;;;;5090156;27;20228;-40
2022/04/29 05:59:15;;;;;;;10.70;5.50;;;5.90;99.90;;;;;;5062640;27;20210;-41
2022/04/29 06:01:58;;;;;;;9.80;6.03;;;5.90;99.90;;;;;;5072139;28;20210;-40
2022/04/29 06:04:33;;;;;;;10.73;6.40;;;5.90;99.90;;;;;;5065955;28;20229;-39
2022/04/29 06:07:00;;;;;;;8.80;5.77;;;6.00;99.90;;;;;;5062546;28;20299;-41
2022/04/29 06:09:28;;;;;;;12.43;7.00;;;6.00;99.90;;;;;;5099072;27;20195;-44
2022/04/29 06:11:57;;;;;;;9.97;6.43;;;6.10;99.90;;;;;;5063310;28;20202;-38
2022/04/29 06:14:28;;;;;;;11.07;6.80;;;6.20;99.90;;;;;;5077331;28;20237;-40
2022/04/29 06:17:28;;;;;;;13.80;6.03;;;6.30;99.90;;;;;;5061131;28;20356;-42
2022/04/29 06:20:13;;;;;;;11.27;6.00;;;6.40;99.90;;;;;;5054100;28;20224;-40
2022/04/29 06:23:13;;;;;;;8.97;5.33;;;6.60;99.90;;;;;;5066705;28;20226;-40
2022/04/29 06:25:41;;;;;;;8.23;4.97;;;6.70;99.90;;;;;;5067153;28;20195;-40
2022/04/29 06:28:08;;;;;;;11.03;4.70;;;6.80;99.90;;;;;;5070017;28;20194;-40
2022/04/29 06:30:35;;;;;;;13.50;4.70;;;6.90;99.90;;;;;;5062559;28;20206;-39
2022/04/29 06:33:16;;;;;;;8.00;4.87;;;7.10;99.90;;;;;;5089479;27;20215;-41
2022/04/29 06:35:49;;;;;;;6.87;3.80;;;7.20;99.90;;;;;;5085465;28;20702;-39
2022/04/29 06:38:17;;;;;;;8.00;4.27;;;7.30;99.90;;;;;;5065548;28;20194;-40
2022/04/29 06:40:57;;;;;;;8.53;4.77;;;7.40;99.90;;;;;;5078022;28;20201;-40
2022/04/29 06:43:33;;;;;;;5.37;3.87;;;7.50;99.90;;;;;;5090034;27;20248;-42
2022/04/29 06:46:19;;;;;;;6.57;3.50;;;7.60;99.90;;;;;;5062537;28;20936;-39
2022/04/29 06:49:15;;;;;;;8.60;3.60;;;7.70;99.90;;;;;;5065095;28;20194;-42
2022/04/29 06:52:08;;;;;;;4.97;3.63;;;7.90;99.90;;;;;;5048815;28;20321;-39
2022/04/29 06:54:40;;;;;;;6.97;3.77;;;8.00;99.90;;;;;;5072658;28;20268;-40
2022/04/29 06:57:13;;;;;;;7.47;3.60;;;8.10;99.90;;;;;;5069670;28;20210;-40
2022/04/29 06:59:40;;;;;;;5.40;3.13;;;8.10;99.90;;;;;;5068172;28;20226;-39
2022/04/29 07:02:07;;;;;;;5.57;3.30;;;8.20;99.90;;;;;;5058139;28;20282;-40
2022/04/29 07:04:34;;;;;;;5.53;3.03;;;8.20;99.90;;;;;;5085742;28;20211;-42
2022/04/29 07:07:02;;;;;;;3.43;2.90;;;8.20;99.90;;;;;;5064768;28;20566;-39
2022/04/29 07:09:30;;;;;;;6.30;3.03;;;8.30;99.90;;;;;;5083322;28;20194;-40
2022/04/29 07:12:17;;;;;;;3.30;2.50;;;8.40;99.90;;;;;;5067918;28;20266;-41
2022/04/29 07:14:52;;;;;;;6.23;2.30;;;8.50;99.90;;;;;;5062918;28;20289;-41
2022/04/29 07:17:20;;;;;;;3.60;2.03;;;8.60;99.90;;;;;;5080315;27;20912;-42
2022/04/29 07:19:50;;;;;;;5.80;2.27;;;8.70;99.90;;;;;;5091349;28;20194;-39
2022/04/29 07:22:17;;;;;;;6.93;3.17;;;8.80;99.90;;;;;;5083065;28;20873;-40
2022/04/29 07:24:47;;;;;;;10.00;3.20;;;8.80;99.90;;;;;;5076938;28;20198;-39
2022/04/29 07:27:14;;;;;;;5.77;2.40;;;8.80;99.90;;;;;;5070267;28;20190;-40
2022/04/29 07:29:43;;;;;;;3.13;2.20;;;9.00;99.90;;;;;;5068506;28;20296;-41
2022/04/29 07:32:14;;;;;;;6.30;2.50;;;9.10;99.90;;;;;;5057815;28;20213;-40
2022/04/29 07:43:41;;;;;;;5.73;2.33;;;9.30;99.90;;;;;;5086712;28;20342;-42
2022/04/29 07:46:10;;;;;;;5.63;2.50;;;9.50;99.90;;;;;;5082999;28;20308;-40
2022/04/29 07:48:52;;;;;;;3.93;2.30;;;9.70;99.90;;;;;;5079967;28;20198;-40
2022/04/29 07:51:19;;;;;;;9.43;3.20;;;9.70;99.90;;;;;;5072146;28;20243;-41
2022/04/29 07:53:46;;;;;;;10.90;2.70;;;9.90;99.90;;;;;;5083976;28;20294;-44
2022/04/29 07:56:13;;;;;;;4.83;2.17;;;10.10;99.90;;;;;;5068120;28;20248;-40
2022/04/29 07:58:41;;;;;;;6.73;2.77;;;10.10;99.90;;;;;;5092524;28;20201;-39
2022/04/29 08:01:10;;;;;;;4.87;2.37;;;10.20;99.90;;;;;;5075246;28;20204;-39
2022/04/29 08:03:40;;;;;;;5.77;1.93;;;10.20;99.90;;;;;;5064082;28;20228;-40
2022/04/29 08:06:10;;;;;;;5.23;2.17;;;10.20;99.90;;;;;;5090132;28;20286;-40
2022/04/29 08:08:38;;;;;;;4.80;1.60;;;10.10;99.90;;;;;;5091639;28;20240;-41
2022/04/29 08:11:05;;;;;;;6.33;2.27;;;10.10;99.90;;;;;;5081410;28;20291;-40
2022/04/29 08:13:42;;;;;;;4.03;2.10;;;10.20;99.90;;;;;;5074265;28;20228;-39
2022/04/29 08:16:32;;;;;;;3.53;1.90;;;10.30;99.90;;;;;;5072835;28;20291;-40
2022/04/29 08:19:23;;;;;;;3.30;2.20;;;10.30;99.90;;;;;;5073964;28;20209;-40
2022/04/29 08:22:23;;;;;;;5.97;2.23;;;10.40;99.90;;;;;;5071297;28;20194;-39
2022/04/29 08:24:52;;;;;;;7.53;1.83;;;10.50;99.90;;;;;;5065302;28;20202;-40
2022/04/29 08:27:19;;;;;;;5.67;2.33;;;10.70;99.90;;;;;;5077557;27;20209;-43
2022/04/29 08:29:47;;;;;;;9.60;2.53;;;10.70;99.90;;;;;;5078975;28;20190;-41
2022/04/29 08:32:15;;;;;;;5.90;2.17;;;10.70;99.90;;;;;;5083347;27;20195;-42
2022/04/29 08:34:44;;;;;;;2.57;1.67;;;10.70;99.90;;;;;;5081125;28;20216;-39
2022/04/29 08:37:11;;;;;;;4.63;2.30;;;10.70;99.90;;;;;;5092188;27;20224;-46
2022/04/29 08:39:42;;;;;;;2.70;1.63;;;10.70;99.90;;;;;;5092742;28;20258;-40
2022/04/29 08:42:10;;;;;;;3.40;1.77;;;10.60;99.90;;;;;;5084436;27;20204;-43
2022/04/29 08:44:40;;;;;;;3.40;2.13;;;10.60;99.90;;;;;;5089698;28;20213;-40
2022/04/29 08:47:27;;;;;;;5.30;2.17;;;10.40;99.90;;;;;;5079708;27;20198;-39
2022/04/29 08:50:16;;;;;;;3.27;1.93;;;10.40;99.90;;;;;;5073092;28;20210;-41
2022/04/29 08:52:44;;;;;;;3.57;1.90;;;10.50;99.90;;;;;;5060080;28;20210;-39
2022/04/29 09:00:42;;;;;;;5.83;2.90;;;10.30;99.90;;;;;;5071202;28;20190;-43
2022/04/29 09:03:14;;;;;;;2.77;2.40;;;10.40;99.90;;;;;;5071428;28;20218;-41
2022/04/29 09:05:41;;;;;;;7.20;3.10;;;10.50;99.90;;;;;;5074694;28;20209;-40
2022/04/29 09:08:11;;;;;;;9.00;3.00;;;10.50;99.90;;;;;;5061931;28;20253;-39
2022/04/29 09:10:49;;;;;;;2.87;2.33;;;10.70;99.90;;;;;;5074353;28;20195;-39
2022/04/29 09:13:17;;;;;;;8.10;3.13;;;10.70;99.90;;;;;;5066795;28;20701;-40
2022/04/29 09:15:48;;;;;;;3.10;2.23;;;10.80;99.90;;;;;;5084766;28;20264;-40
2022/04/29 09:18:33;;;;;;;3.87;2.57;;;10.90;99.90;;;;;;5074644;28;20228;-42
2022/04/29 09:20:59;;;;;;;6.43;3.03;;;10.90;99.90;;;;;;5076205;28;20202;-39
2022/04/29 09:23:27;;;;;;;10.67;2.07;;;10.90;99.90;;;;;;5066693;28;20706;-39
2022/04/29 09:26:20;;;;;;;5.17;2.60;;;11.00;99.90;;;;;;5078028;28;20233;-40
2022/04/29 09:29:12;;;;;;;3.97;2.27;;;11.30;99.90;;;;;;5068560;28;20289;-41
2022/04/29 09:31:53;;;;;;;4.37;1.83;;;11.50;99.90;;;;;;5085680;28;20251;-45
2022/04/29 09:34:48;;;;;;;4.30;1.70;;;11.60;99.90;;;;;;5071279;28;20807;-41
2022/04/29 09:37:16;;;;;;;4.13;2.00;;;11.80;99.90;;;;;;5083309;28;20226;-40
2022/04/29 09:39:50;;;;;;;2.70;1.67;;;11.70;99.90;;;;;;5065598;28;20209;-39
2022/04/29 09:42:17;;;;;;;3.80;1.90;;;11.70;99.90;;;;;;5079929;28;20667;-41
2022/04/29 09:44:45;;;;;;;6.20;2.30;;;11.60;99.90;;;;;;5063946;28;20197;-42
2022/04/29 09:47:14;;;;;;;3.83;2.53;;;11.80;99.90;;;;;;5079515;28;20282;-40
2022/04/29 09:49:41;;;;;;;2.70;2.37;;;11.80;99.90;;;;;;5063897;28;20874;-42
2022/04/29 09:52:09;;;;;;;2.83;2.30;;;11.80;99.90;;;;;;5082579;28;20206;-40
2022/04/29 09:54:37;;;;;;;6.57;2.47;;;12.00;99.90;;;;;;5053668;28;20207;-39
2022/04/29 09:57:07;;;;;;;5.60;2.00;;;11.90;99.90;;;;;;5069815;28;20279;-43
2022/04/29 09:59:36;;;;;;;2.57;1.80;;;11.90;99.90;;;;;;5059025;28;20209;-43
2022/04/29 10:02:04;;;;;;;3.33;1.90;;;11.90;99.90;;;;;;5073384;28;20678;-40
2022/04/29 10:04:33;;;;;;;3.60;2.03;;;12.00;99.90;;;;;;5064180;28;20199;-44
2022/04/29 10:07:03;;;;;;;5.10;2.03;;;12.00;99.90;;;;;;5071245;28;20244;-40
2022/04/29 10:09:33;;;;;;;3.97;2.10;;;12.00;99.90;;;;;;5069013;28;20228;-39
2022/04/29 10:12:02;;;;;;;3.17;1.80;;;12.00;99.90;;;;;;5072426;28;20205;-42
2022/04/29 10:14:31;;;;;;;4.80;2.23;;;12.10;99.90;;;;;;5074159;28;20237;-40
2022/04/29 10:23:04;;;;;;;2.77;2.33;;;12.30;99.90;;;;;;5082325;28;20299;-47
2022/04/29 10:25:34;;;;;;;3.97;2.50;;;12.50;99.90;;;;;;5062626;28;20202;-39
2022/04/29 10:28:01;;;;;;;5.37;2.67;;;12.50;99.70;;;;;;5084265;28;20260;-41
2022/04/29 10:30:30;;;;;;;3.37;2.57;;;12.50;99.50;;;;;;5068066;28;20210;-40
2022/04/29 10:33:04;;;;;;;3.63;2.20;;;12.60;99.30;;;;;;5063357;28;20234;-40
2022/04/29 10:35:56;;;;;;;2.83;2.50;;;12.80;98.60;;;;;;5076348;28;20203;-39
2022/04/29 10:38:25;;;;;;;2.90;2.30;;;12.70;98.90;;;;;;5060345;28;20209;-41
2022/04/29 10:41:17;;;;;;;3.73;2.23;;;12.70;98.40;;;;;;5068329;28;21305;-43
2022/04/29 10:44:03;;;;;;;4.77;2.10;;;12.70;97.70;;;;;;5071378;28;20206;-42
2022/04/29 10:46:35;;;;;;;6.80;2.27;;;12.80;97.90;;;;;;5063473;28;20536;-40
2022/04/29 10:49:27;;;;;;;4.70;2.37;;;12.90;97.60;;;;;;5061581;28;20275;-40
2022/04/29 10:52:26;;;;;;;5.93;2.23;;;12.80;97.40;;;;;;5076005;28;20213;-41
2022/04/29 10:55:01;;;;;;;6.53;2.80;;;12.80;97.50;;;;;;5082576;28;20208;-40
2022/04/29 10:57:42;;;;;;;2.83;2.47;;;12.80;97.90;;;;;;5077092;27;20227;-39
2022/04/29 11:00:11;;;;;;;3.00;2.33;;;12.80;98.10;;;;;;5088516;28;20209;-40
2022/04/29 11:02:41;;;;;;;6.07;2.33;;;12.70;98.30;;;;;;5073685;28;20225;-40
2022/04/29 11:05:08;;;;;;;4.30;2.30;;;12.90;98.00;;;;;;5073497;28;20281;-40
2022/04/29 11:07:42;;;;;;;3.13;2.53;;;13.00;97.90;;;;;;5080614;28;20284;-39
2022/04/29 11:10:12;;;;;;;4.40;2.33;;;13.10;97.70;;;;;;5071915;28;20216;-41
2022/04/29 11:12:43;;;;;;;7.33;3.07;;;13.00;97.70;;;;;;5072829;28;20323;-40
2022/04/29 11:15:47;;;;;;;2.60;2.30;;;13.10;97.40;;;;;;5061225;28;20580;-41
2022/04/29 11:18:29;;;;;;;5.83;2.20;;;13.10;96.50;;;;;;5060529;28;20193;-41
2022/04/29 11:20:59;;;;;;;5.20;2.27;;;13.20;96.90;;;;;;5077187;28;20208;-44
2022/04/29 11:26:12;;;;;;;2.77;1.83;;;13.40;95.80;;;;;;5072212;28;20276;-44
2022/04/29 11:28:45;;;;;;;2.50;2.13;;;13.50;95.40;;;;;;5079171;28;20255;-44
2022/04/29 11:31:34;;;;;;;1.97;1.80;;;13.50;94.30;;;;;;5083134;28;20197;-39
2022/04/29 11:34:06;;;;;;;4.80;1.80;;;13.70;93.60;;;;;;5066012;28;20209;-40
2022/04/29 11:36:36;;;;;;;3.00;2.10;;;13.80;93.20;;;;;;5050375;28;20408;-39
2022/04/29 11:39:08;;;;;;;5.73;1.97;;;13.80;93.30;;;;;;5069197;28;20198;-43
2022/04/29 11:41:35;;;;;;;5.73;2.10;;;13.70;92.50;;;;;;5062788;28;20432;-42
2022/04/29 11:44:03;;;;;;;4.70;2.40;;;13.60;92.20;;;;;;5065921;28;20222;-41
2022/04/29 11:46:31;;;;;;;3.60;2.00;;;13.60;92.00;;;;;;5066644;28;20239;-41
2022/04/29 11:48:59;;;;;;;4.23;2.07;;;13.60;91.70;;;;;;5077194;28;20723;-41
2022/04/29 11:51:27;;;;;;;4.13;2.40;;;13.50;91.30;;;;;;5056137;28;20209;-39
2022/04/29 11:53:56;;;;;;;5.47;2.10;;;13.40;91.10;;;;;;5075990;28;20213;-40
2022/04/29 11:56:24;;;;;;;3.17;2.37;;;13.70;91.30;;;;;;5067751;28;20197;-39
2022/04/29 11:58:52;;;;;;;2.40;1.80;;;13.70;90.30;;;;;;5060803;28;20197;-40
2022/04/29 12:01:22;;;;;;;2.00;1.73;;;13.70;89.20;;;;;;5067206;28;20240;-40
2022/04/29 12:03:49;;;;;;;5.87;2.17;;;13.60;90.10;;;;;;5073191;28;20253;-40
2022/04/29 12:06:16;;;;;;;2.30;2.10;;;13.80;90.00;;;;;;5079361;28;20293;-42
2022/04/29 12:08:44;;;;;;;4.00;2.30;;;13.90;90.30;;;;;;5071931;28;20207;-42
2022/04/29 12:11:25;;;;;;;6.17;2.37;;;14.10;90.00;;;;;;5060090;28;20198;-41
2022/04/29 12:13:52;;;;;;;4.47;2.10;;;14.10;89.80;;;;;;5064868;28;20595;-38
2022/04/29 12:16:20;;;;;;;7.30;2.10;;;14.40;88.60;;;;;;5071194;28;20199;-39
2022/04/29 12:18:48;;;;;;;3.83;2.43;;;14.30;88.60;;;;;;5070625;28;20710;-41
2022/04/29 12:21:22;;;;;;;4.57;2.30;;;14.40;88.40;;;;;;5065571;28;20197;-39
2022/04/29 12:23:49;;;;;;;6.00;2.57;;;14.40;89.20;;;;;;5075429;28;20717;-39
2022/04/29 12:26:15;;;;;;;6.00;2.87;;;14.40;89.60;;;;;;5059916;28;20193;-39
2022/04/29 12:28:52;;;;;;;7.40;2.77;;;14.40;89.80;;;;;;5064504;28;20238;-41
2022/04/29 12:37:07;;;;;;;2.93;2.30;;;14.20;88.50;;;;;;5070489;28;20606;-40
2022/04/29 12:40:08;;;;;;;5.90;3.07;;;14.20;88.50;;;;;;5078611;28;20205;-39
2022/04/29 12:42:35;;;;;;;6.70;3.13;;;14.20;88.40;;;;;;5068215;28;20214;-41
2022/04/29 12:45:14;;;;;;;5.10;3.20;;;14.10;88.90;;;;;;5084808;27;20217;-39
2022/04/29 12:48:07;;;;;;;6.17;3.50;;;14.10;89.30;;;;;;5066856;28;20192;-42
2022/04/29 12:50:39;;;;;;;4.10;3.10;;;14.20;90.40;;;;;;5069104;28;20203;-39
2022/04/29 12:53:08;;;;;;;5.13;2.93;;;14.30;90.00;;;;;;5074716;28;20222;-42
2022/04/29 12:55:36;;;;;;;5.07;3.33;;;14.30;89.40;;;;;;5079825;28;20209;-40
2022/04/29 12:58:06;;;;;;;4.90;3.73;;;14.30;89.90;;;;;;5078733;28;20283;-40
2022/04/29 13:00:33;;;;;;;6.57;3.70;;;14.30;89.80;;;;;;5068010;28;20214;-40
2022/04/29 13:03:01;;;;;;;3.70;3.37;;;14.30;90.10;;;;;;5076127;28;20215;-42
2022/04/29 13:05:30;;;;;;;7.47;3.63;;;14.10;90.20;;;;;;5077467;28;20198;-41
2022/04/29 13:07:57;;;;;;;3.93;3.37;;;14.20;90.30;;;;;;5056889;28;20334;-41
2022/04/29 13:10:25;;;;;;;4.63;3.20;;;14.30;90.00;;;;;;5068306;28;20314;-42
2022/04/29 13:12:53;;;;;;;4.30;4.00;;;14.30;90.30;;;;;;5065607;28;20210;-42
2022/04/29 13:15:26;;;;;;;6.13;3.90;;;14.40;90.60;;;;;;5070487;28;20209;-40
2022/04/29 13:17:58;;;;;;;4.43;3.70;;;14.40;90.60;;;;;;5060304;28;20209;-41
2022/04/29 13:20:25;;;;;;;4.90;3.60;;;14.10;90.80;;;;;;5071908;28;20628;-40
2022/04/29 13:22:54;;;;;;;8.20;4.10;;;14.10;91.30;;;;;;5064356;28;20352;-42
2022/04/29 13:25:22;;;;;;;4.37;3.77;;;14.00;91.50;;;;;;5073172;28;20207;-41
2022/04/29 13:27:49;;;;;;;5.37;4.00;;;13.90;91.80;;;;;;5077909;28;20288;-43
2022/04/29 13:30:16;;;;;;;6.27;4.30;;;13.90;92.10;;;;;;5072172;28;20195;-42
2022/04/29 13:32:43;;;;;;;5.00;4.50;;;14.00;92.20;;;;;;5062372;28;20766;-40
2022/04/29 13:35:10;;;;;;;4.63;3.80;;;14.00;92.00;;;;;;5077367;28;20697;-39
2022/04/29 13:37:39;;;;;;;4.40;4.00;;;13.90;91.90;;;;;;5072616;28;20218;-40
2022/04/29 13:40:09;;;;;;;4.17;3.87;;;13.90;92.20;;;;;;5067727;28;20208;-43
2022/04/29 13:42:36;;;;;;;4.73;4.20;;;14.00;92.20;;;;;;5068296;28;20275;-42
2022/04/29 13:45:05;;;;;;;6.73;3.90;;;14.20;91.90;;;;;;5089814;27;20310;-41
2022/04/29 13:47:33;;;;;;;5.77;3.77;;;14.20;91.40;;;;;;5061220;28;20210;-42
2022/04/29 13:50:01;;;;;;;5.63;3.83;;;14.20;91.40;;;;;;5071632;28;20197;-41
2022/04/29 13:55:14;;;;;;;4.90;3.63;;;14.30;91.40;;;;;;5072111;28;20218;-40
2022/04/29 13:57:41;;;;;;;5.37;3.83;;;14.20;91.40;;;;;;5073323;28;20304;-40